Hauptseite
METAR-TAF:

METAR-TAF

Flughäfen :

Nadi, Fidschi

Flughafen Nadi

Breite: 17-45S, Länge: 177-27E, Höhe: 13 m

Beobachtung

Neuester Wetterbericht von vor 11 Minuten, um 18:00 UTC
Wind 4 kt aus Nordost
Temperatur 23°C
Luftfeuchtigkeit 78%
Luftdruck 1014 hPa
Sichtweite 10 km oder mehr
Leicht bewölkt in der Höhe von 3000 ft

METAR: NFFN 261800Z 05004KT 9999 FEW030 23/19 Q1014 NOSIG

Zeit: 06:11 (18:11 UTC)

Prognose

Neuester Wetterbericht von vor 1 Stunde und 7 Minuten, um 17:04 UTC
Gültige Prognose vom 26 um 18 UTC bis 27 um 18 UTC
Wind 8 kt aus Ost
Sichtweite 10 km oder mehr
Leicht bewölkt in der Höhe von 2500 ft
Aufgelockert bewölkt in der Höhe von 5000 ft
Übergehend zu
vom 26 um 21 UTC bis 26 um 23 UTC
Wind 12 kt aus West
Übergehend zu
vom 27 um 04 UTC bis 27 um 06 UTC
Wind 6 kt aus Ost

TAF: NFFN 261704Z 2618/2718 08008KT 9999 FEW025 SCT050 BECMG 2621/2623 28012KT BECMG 2704/2706 10006KT

Wetterbeobachtungen und Prognosen von mehr als 4000 Flughäfen (METAR und TAF Bericht).

Die verfügbaren Stationen werden durch gelbe und rote Markierungen auf der Karte dargestellt.

Führen Sie die Maus auf sie, um den Namen der Station zu sehen.

Darauf klicken, um die Beobachtung von Wetterbeobachtungen und Prognosen zu sehen.

Um die Karte zu ändern : klicken Sie auf den grünen Tasten mit einem schwarzen Kreuz Zum Vergrößern, auf den grünen Button mit einem Gedankenstrich zu verkleinern, oder auf die grünen Pfeile für benachbarte Karten.


METAR-TAF: